Data for 09/21/2005

Time Sea-Level Adjusted Pressure Absolute Pressure Temperature Relative Humidity Dew Point   
(mb) (inHg) (mb) (inHg) (C) (F) (%) (C) (F)
00:05 1019 30.09 848 25.04 15 58.9 35 -0.5 31.1
00:10 1019 30.09 848 25.04 15 58.9 34 -0.7 30.8
00:15 1019 30.09 848 25.04 14.9 58.7 35 -0.4 31.4
00:20 1019 30.09 848 25.04 15.1 59.1 33 -0.8 30.6
00:25 1019 30.09 848 25.04 15 59.1 34 -0.6 30.9
00:30 1019 30.09 848 25.04 14.8 58.6 33 -1.1 30
00:35 1019 30.09 848 25.04 15.2 59.3 33 -1 30.3
00:40 1019 30.09 848 25.04 15.7 60.2 31 -1.4 29.5
00:45 1019 30.09 848 25.04 15.8 60.5 31 -1.1 30
00:50 1019 30.09 848 25.04 15.8 60.5 31 -1.1 30
00:55 1019 30.09 848 25.04 15.9 60.6 31 -1.1 30.1
01:00 1019 30.09 848 25.04 15.6 60.1 33 -0.6 30.9
01:05 1019 30.09 848 25.04 15.1 59.2 33 -1.1 29.9
01:10 1019 30.09 849 25.07 15.6 60.1 30 -1.7 29
01:15 1019 30.09 849 25.07 16 60.7 30 -1.6 29.2
01:20 1019 30.09 849 25.07 16.5 61.7 28 -1.8 28.8
01:25 1020 30.12 849 25.07 16.7 62.1 30 -1.1 30.1
01:30 1020 30.12 849 25.07 16.5 61.6 30 -1.3 29.7
01:35 1020 30.12 849 25.07 16.3 61.3 30 -1 30.2
01:40 1020 30.12 849 25.07 15.9 60.6 32 -0.6 31
01:45 1020 30.12 849 25.07 15.5 59.9 33 -0.4 31.2
01:50 1020 30.12 849 25.07 15 59 34 -0.6 31
01:55 1020 30.12 849 25.07 14.6 58.3 35 -0.4 31.2
02:00 1020 30.12 849 25.07 14.1 57.4 37 -0.2 31.7
02:05 1020 30.12 849 25.07 13.8 56.9 37 -0.7 30.8
02:10 1020 30.12 849 25.07 14.3 57.7 35 -0.9 30.4
02:15 1020 30.12 849 25.07 14.3 57.8 35 -0.7 30.7
02:20 1020 30.12 849 25.07 14 57.1 38 -0.2 31.6
02:25 1020 30.12 849 25.07 13.7 56.7 37 -0.5 31.1
02:30 1020 30.12 849 25.07 13.8 56.8 38 -0.2 31.6
02:35 1020 30.12 849 25.07 13.7 56.6 37 -0.6 30.9
02:40 1020 30.12 849 25.07 13.8 56.8 38 -0.4 31.3
02:45 1020 30.12 849 25.07 13.7 56.6 38 -0.5 31.2
02:50 1020 30.12 849 25.07 13.6 56.5 38 -0.6 31
02:55 1020 30.12 849 25.07 13.6 56.4 37 -0.6 30.9
03:00 1020 30.12 849 25.07 13.8 56.8 37 -0.7 30.7
03:05 1020 30.12 849 25.07 13.9 57 37 -0.6 30.9
03:10 1020 30.12 849 25.07 13.8 56.9 38 -0.3 31.5
03:15 1020 30.12 849 25.07 13.6 56.5 38 -0.3 31.5
03:20 1020 30.12 849 25.07 13.5 56.2 39 -0 32
03:25 1020 30.12 849 25.07 13.2 55.7 40 0.1 32.2
03:30 1020 30.12 849 25.07 13.2 55.8 40 -0.1 31.8
03:35 1020 30.12 849 25.07 13.1 55.6 40 -0.1 31.8
03:40 1020 30.12 849 25.07 13.1 55.7 40 -0.1 31.9
03:45 1020 30.12 849 25.07 12.8 55.1 42 0.2 32.3
03:50 1020 30.12 849 25.07 12.9 55.2 40 -0.5 31.2
03:55 1020 30.12 849 25.07 13.3 56 38 -0.5 31.2
04:00 1020 30.12 849 25.07 13.6 56.4 38 -0.4 31.2
04:05 1020 30.12 849 25.07 13.9 57 35 -1.1 30.1
04:10 1020 30.12 849 25.07 13.7 56.7 39 0.2 32.4
04:15 1020 30.12 849 25.07 13 55.4 43 0.6 33.1
04:20 1020 30.12 849 25.07 12.6 54.6 43 0.5 33
04:25 1020 30.12 849 25.07 12.4 54.4 43 0.2 32.4
04:30 1020 30.12 849 25.07 12.4 54.4 44 0.7 33.2
04:35 1020 30.12 849 25.07 12.2 53.9 43 0 32.1
04:40 1020 30.12 849 25.07 12.2 53.9 45 0.6 33.1
04:45 1020 30.12 849 25.07 12 53.5 46 0.9 33.6
04:50 1020 30.12 849 25.07 11.9 53.4 46 0.9 33.5
04:55 1020 30.12 849 25.07 11.7 53 49 1.4 34.4
05:00 1020 30.12 849 25.07 11.2 52.1 50 1.3 34.3
05:05 1020 30.12 849 25.07 11.1 52 48 0.5 32.8
05:10 1020 30.12 849 25.07 11.3 52.4 50 1.4 34.6
05:15 1020 30.12 849 25.07 10.8 51.5 52 1.3 34.4
05:20 1020 30.12 849 25.07 10.8 51.4 49 0.6 33.2
05:25 1020 30.12 849 25.07 11.2 52.2 47 0.4 32.6
05:30 1020 30.12 849 25.07 11.4 52.6 47 0.6 33.1
05:35 1020 30.12 849 25.07 11.5 52.6 47 0.6 33.2
05:40 1020 30.12 849 25.07 11.4 52.6 47 0.5 32.9
05:45 1020 30.12 849 25.07 11.6 52.8 46 0.4 32.7
05:50 1020 30.12 849 25.07 11.7 53 47 0.7 33.3
05:55 1020 30.12 849 25.07 11.7 53 47 0.9 33.7
06:00 1020 30.12 849 25.07 11.5 52.6 49 1.1 34
06:05 1020 30.12 849 25.07 11.3 52.4 47 0.4 32.8
06:10 1020 30.12 849 25.07 11.4 52.6 46 0.4 32.6
06:15 1020 30.12 849 25.07 11.6 52.8 46 0.3 32.5
06:20 1020 30.12 849 25.07 11.7 53 46 0.7 33.2
06:25 1020 30.12 849 25.07 11.6 52.8 46 0.5 32.9
06:30 1020 30.12 849 25.07 11.5 52.6 49 1.2 34.1
06:35 1020 30.12 849 25.07 11 51.7 50 1 33.7
06:40 1020 30.12 849 25.07 11 51.7 50 1.1 33.9
06:45 1020 30.12 849 25.07 11.1 52 50 1 33.9
06:50 1020 30.12 849 25.07 11 51.8 50 0.9 33.7
06:55 1020 30.12 849 25.07 10.9 51.6 50 0.8 33.5
07:00 1020 30.12 849 25.07 10.9 51.6 47 0.2 32.4
07:05 1020 30.12 849 25.07 11.1 52 47 0.4 32.6
07:10 1020 30.12 850 25.1 11 51.8 48 0.4 32.7
07:15 1020 30.12 850 25.1 11.1 52 48 0.4 32.7
07:20 1020 30.12 850 25.1 11 51.8 49 0.7 33.3
07:25 1021 30.15 850 25.1 10.8 51.4 51 1 33.8
07:30 1021 30.15 850 25.1 10.8 51.4 50 0.7 33.3
07:35 1021 30.15 850 25.1 10.8 51.4 52 1.3 34.4
07:40 1021 30.15 850 25.1 10.5 50.9 52 1.1 34
07:45 1021 30.15 850 25.1 10.6 51 50 0.7 33.3
07:50 1021 30.15 850 25.1 10.6 51.1 50 0.7 33.3
07:55 1021 30.15 850 25.1 10.3 50.6 54 1.5 34.7
08:00 1021 30.15 850 25.1 10.2 50.4 55 1.7 35.1
08:05 1021 30.15 850 25.1 10.1 50.1 57 2.1 35.7
08:10 1021 30.15 850 25.1 9.7 49.4 57 1.7 35.1
08:15 1021 30.15 850 25.1 9.6 49.2 59 2 35.6
08:20 1021 30.15 850 25.1 9.5 49.1 59 2 35.7
08:25 1021 30.15 850 25.1 9.6 49.2 58 1.9 35.4
08:30 1021 30.15 850 25.1 9.8 49.6 57 1.8 35.2
08:35 1021 30.15 850 25.1 9.9 49.9 57 1.8 35.3
08:40 1021 30.15 850 25.1 10.1 50.2 57 2 35.6
08:45 1021 30.15 850 25.1 10.3 50.6 58 2.5 36.4
08:50 1021 30.15 850 25.1 10.3 50.5 59 2.6 36.6
08:55 1021 30.15 850 25.1 10.3 50.6 55 1.9 35.3
09:00 1021 30.15 850 25.1 10.5 51 54 1.6 34.9
09:05 1021 30.15 850 25.1 10.8 51.4 54 2 35.5
09:10 1021 30.15 850 25.1 11 51.8 55 2.4 36.4
09:15 1021 30.15 850 25.1 11.1 52.1 53 1.8 35.3
09:20 1021 30.15 850 25.1 11.2 52.1 52 1.6 35
09:25 1021 30.15 850 25.1 11.5 52.6 53 2.2 36
09:30 1021 30.15 850 25.1 11.8 53.2 51 2 35.6
09:35 1021 30.15 850 25.1 11.8 53.2 48 1.3 34.4
09:40 1021 30.15 850 25.1 12 53.6 53 2.7 36.9
09:45 1021 30.15 851 25.13 12.1 53.7 51 2.3 36.2
09:50 1021 30.15 851 25.13 12.1 53.8 49 1.7 35
09:55 1021 30.15 851 25.13 12.7 54.8 47 1.8 35.2
10:00 1022 30.18 851 25.13 13 55.3 46 1.6 34.9
10:05 1022 30.18 851 25.13 13 55.4 44 1.2 34.2
10:10 1021 30.15 851 25.13 13.1 55.5 40 -0 32
10:15 1021 30.15 851 25.13 13.2 55.7 40 0 32.1
10:20 1021 30.15 851 25.13 13.5 56.2 39 -0.1 31.8
10:25 1021 30.15 851 25.13 13.6 56.5 37 -0.8 30.6
10:30 1021 30.15 851 25.13 13.7 56.7 35 -1.2 29.8
10:35 1021 30.15 851 25.13 14 57.1 36 -0.9 30.3
10:40 1021 30.15 851 25.13 14.5 58 35 -0.6 30.9
10:45 1021 30.15 851 25.13 14.8 58.6 32 -1.6 29.1
10:50 1021 30.15 851 25.13 15.1 59.2 31 -1.8 28.8
10:55 1021 30.15 850 25.1 15.4 59.8 30 -1.9 28.5
11:00 1021 30.15 850 25.1 15.4 59.7 32 -1.1 30.1
11:05 1021 30.15 851 25.13 15.6 60.1 31 -1.2 29.8
11:10 1021 30.15 851 25.13 15.8 60.4 31 -1.4 29.4
11:15 1021 30.15 850 25.1 15.7 60.2 30 -1.5 29.2
11:20 1021 30.15 850 25.1 15.5 59.9 31 -1.6 29.1
11:25 1021 30.15 851 25.13 15.5 59.8 30 -1.9 28.6
11:30 1021 30.15 850 25.1 15.4 59.7 30 -1.9 28.5
11:35 1021 30.15 850 25.1 15.2 59.3 30 -2.1 28.3
11:40 1021 30.15 850 25.1 15.4 59.8 30 -2 28.5
11:45 1021 30.15 850 25.1 15.8 60.5 30 -1.8 28.8
11:50 1021 30.15 850 25.1 16 60.9 29 -1.7 29
11:55 1021 30.15 850 25.1 16.6 61.8 26 -2.7 27.1
12:00 1021 30.15 850 25.1 17.1 62.7 28 -1.6 29.1
12:05 1021 30.15 850 25.1 17.6 63.6 27 -1.7 28.9
12:10 1021 30.15 850 25.1 17.7 63.8 26 -1.8 28.8
12:15 1021 30.15 850 25.1 17.9 64.1 26 -1.8 28.8
12:20 1021 30.15 850 25.1 18.5 65.3 24 -2.1 28.2
12:25 1021 30.15 850 25.1 18.2 64.7 26 -1.3 29.7
12:30 1021 30.15 850 25.1 18.1 64.7 26 -1.5 29.2
12:35 1021 30.15 850 25.1 18.6 65.5 25 -1.8 28.8
12:40 1021 30.15 850 25.1 19.4 67 25 -1 30.2
12:45 1021 30.15 850 25.1 19.3 66.8 25 -1.2 29.8
12:50 1021 30.15 850 25.1 19.5 67 25 -0.7 30.7
12:55 1021 30.15 850 25.1 19.1 66.4 26 -0.7 30.7
13:00 1021 30.15 850 25.1 19.3 66.7 25 -1.2 29.9
13:05 1021 30.15 850 25.1 19.1 66.3 26 -0.6 30.9
13:10 1021 30.15 850 25.1 19.1 66.4 26 -0.5 31
13:15 1020 30.12 850 25.1 19.3 66.8 27 -0 31.9
13:20 1020 30.12 850 25.1 19.7 67.5 25 -0.7 30.7
13:25 1020 30.12 849 25.07 19.8 67.7 25 -0.4 31.3
13:30 1020 30.12 849 25.07 20.2 68.3 25 -0.4 31.2
13:35 1020 30.12 849 25.07 19.8 67.6 26 -0.2 31.6
13:40 1020 30.12 849 25.07 19.6 67.2 25 -1 30.1
13:45 1020 30.12 849 25.07 19.6 67.3 24 -1.4 29.5
13:50 1020 30.12 849 25.07 19.5 67 25 -0.8 30.6
13:55 1020 30.12 849 25.07 19.5 67.1 26 -0.5 31.1
14:00 1020 30.12 849 25.07 19.3 66.7 28 0.6 33.1
14:05 1020 30.12 849 25.07 19.2 66.6 27 -0.3 31.5
14:10 1020 30.12 849 25.07 18.6 65.4 28 -0.3 31.5
14:15 1020 30.12 849 25.07 18.4 65.1 28 -0.4 31.4
14:20 1020 30.12 849 25.07 18.5 65.2 29 0.1 32.2
14:25 1020 30.12 849 25.07 19.1 66.4 27 -0.1 31.8
14:30 1020 30.12 849 25.07 19.2 66.5 28 0.3 32.6
14:35 1020 30.12 849 25.07 18.9 66.1 28 0.3 32.6
14:40 1020 30.12 849 25.07 18.9 66.1 27 -0.5 31.1
14:45 1020 30.12 849 25.07 18.9 66 27 -0.2 31.7
14:50 1020 30.12 849 25.07 18.8 65.9 28 0.2 32.4
14:55 1020 30.12 849 25.07 18.9 66 29 0.9 33.5
15:00 1020 30.12 849 25.07 19 66.2 29 0.6 33.1
15:05 1020 30.12 849 25.07 19 66.1 28 0.2 32.4
15:10 1020 30.12 849 25.07 18.6 65.5 29 0.5 32.9
15:15 1020 30.12 849 25.07 18.4 65.2 29 0.1 32.2
15:20 1020 30.12 849 25.07 18.4 65.1 30 0.5 32.9
15:25 1020 30.12 849 25.07 18.6 65.4 30 0.7 33.2
15:30 1020 30.12 849 25.07 18.6 65.4 29 0.5 32.8
15:35 1020 30.12 849 25.07 18.5 65.2 29 0.4 32.7
15:40 1020 30.12 849 25.07 18.3 64.9 29 0.2 32.4
15:45 1020 30.12 849 25.07 18.2 64.8 30 0.3 32.5
15:50 1020 30.12 849 25.07 18.3 65 29 0.2 32.3
15:55 1020 30.12 849 25.07 18.6 65.4 29 0.2 32.3
16:00 1020 30.12 849 25.07 18.6 65.5 28 0.1 32.2
16:05 1020 30.12 849 25.07 18.5 65.3 29 0.3 32.5
16:10 1020 30.12 849 25.07 18.5 65.3 28 -0.2 31.6
16:15 1020 30.12 849 25.07 18.1 64.5 29 -0 31.9
16:20 1019 30.09 849 25.07 18.1 64.6 29 -0.2 31.7
16:25 1020 30.12 849 25.07 18.2 64.7 28 -0.3 31.5
16:30 1019 30.09 849 25.07 18.4 65 28 -0.4 31.3
16:35 1019 30.09 849 25.07 18.5 65.3 28 -0.2 31.7
16:40 1019 30.09 849 25.07 18.5 65.2 30 0.9 33.5
16:45 1019 30.09 849 25.07 18.5 65.2 27 -0.7 30.8
16:50 1019 30.09 849 25.07 18.6 65.4 28 -0 32
16:55 1019 30.09 849 25.07 18 64.4 29 -0.2 31.7
17:00 1019 30.09 849 25.07 18.1 64.5 29 -0 32
17:05 1019 30.09 849 25.07 17.8 64.1 29 -0.2 31.7
17:10 1019 30.09 849 25.07 17.7 63.9 30 0 32.1
17:15 1019 30.09 849 25.07 17.5 63.6 31 0.1 32.2
17:20 1019 30.09 849 25.07 17.3 63.1 31 -0.1 31.8
17:25 1019 30.09 849 25.07 17.2 63 30 -0.3 31.5
17:30 1019 30.09 849 25.07 17.2 62.9 32 0.3 32.5
17:35 1019 30.09 849 25.07 17.4 63.3 30 -0.1 31.7
17:40 1019 30.09 849 25.07 17.2 63 32 0.6 33
17:45 1019 30.09 849 25.07 17.1 62.8 32 0.4 32.7
17:50 1019 30.09 849 25.07 17.1 62.8 33 1 33.8
17:55 1019 30.09 849 25.07 17.1 62.9 33 0.7 33.3
18:00 1019 30.09 849 25.07 16.8 62.3 34 0.8 33.5
18:05 1019 30.09 849 25.07 16.5 61.7 35 1.1 34
18:10 1019 30.09 849 25.07 16.3 61.3 43 3.6 38.5
18:15 1020 30.12 849 25.07 16.3 61.4 34 0.5 32.8
18:20 1020 30.12 849 25.07 16.2 61.2 37 1.6 34.8
18:25 1020 30.12 849 25.07 16.2 61.2 38 1.9 35.5
18:30 1020 30.12 849 25.07 16.2 61.2 38 1.9 35.4
18:35 1020 30.12 849 25.07 16.2 61.2 40 2.7 36.9
18:40 1020 30.12 849 25.07 16 60.7 40 2.5 36.4
18:45 1020 30.12 849 25.07 15.8 60.4 35 0.6 33
18:50 1020 30.12 849 25.07 15.6 60.1 35 0.4 32.7
18:55 1020 30.12 849 25.07 15.4 59.6 35 0.1 32.2
19:00 1020 30.12 849 25.07 15.2 59.4 35 0 32
19:05 1020 30.12 849 25.07 15.1 59.1 35 -0.1 31.9
19:10 1020 30.12 849 25.07 15 58.9 35 -0.1 31.8
19:15 1020 30.12 849 25.07 14.8 58.6 36 -0 32
19:20 1020 30.12 849 25.07 14.7 58.4 37 0.2 32.4
19:25 1020 30.12 849 25.07 14.5 58.1 37 0.2 32.4
19:30 1020 30.12 849 25.07 14.3 57.8 38 0.2 32.4
19:35 1020 30.12 849 25.07 14.1 57.5 39 0.3 32.6
19:40 1020 30.12 849 25.07 14 57.2 39 0.4 32.7
19:45 1020 30.12 849 25.07 13.9 56.9 40 0.4 32.8
19:50 1020 30.12 849 25.07 13.6 56.6 40 0.4 32.7
19:55 1020 30.12 849 25.07 13.6 56.5 40 0.5 32.8
20:00 1020 30.12 849 25.07 13.4 56.1 41 0.5 32.8
20:05 1020 30.12 849 25.07 13.3 56 41 0.4 32.7
20:10 1020 30.12 849 25.07 13.2 55.8 41 0.4 32.7
20:15 1020 30.12 849 25.07 13.2 55.7 41 0.4 32.7
20:20 1020 30.12 849 25.07 13.1 55.6 42 0.5 32.8
20:25 1020 30.12 849 25.07 13 55.3 42 0.6 33
20:30 1020 30.12 849 25.07 12.8 55 43 0.5 32.9
20:35 1020 30.12 849 25.07 12.7 54.8 43 0.4 32.6
20:40 1020 30.12 850 25.1 12.7 54.9 42 0.4 32.6
20:45 1020 30.12 850 25.1 12.6 54.7 43 0.4 32.7
20:50 1020 30.12 850 25.1 12.5 54.6 43 0.4 32.8
20:55 1020 30.12 850 25.1 12.5 54.4 43 0.4 32.8
21:00 1020 30.12 850 25.1 12.4 54.3 43 0.4 32.6
21:05 1020 30.12 850 25.1 12.3 54.2 44 0.5 32.9
21:10 1020 30.12 850 25.1 12.2 54 44 0.5 32.9
21:15 1021 30.15 850 25.1 12.2 53.9 44 0.5 32.8
21:20 1021 30.15 850 25.1 12.2 53.9 45 0.5 32.9
21:25 1021 30.15 850 25.1 12.1 53.8 45 0.5 32.9
21:30 1021 30.15 850 25.1 12.1 53.8 45 0.5 32.9
21:35 1021 30.15 850 25.1 12.1 53.8 45 0.6 33.1
21:40 1021 30.15 850 25.1 12 53.6 45 0.6 33.1
21:45 1021 30.15 850 25.1 12 53.5 46 0.7 33.2
21:50 1021 30.15 850 25.1 11.9 53.4 46 0.7 33.2
21:55 1021 30.15 850 25.1 11.9 53.4 46 0.7 33.2
22:00 1021 30.15 850 25.1 11.9 53.4 47 0.9 33.6
22:05 1021 30.15 850 25.1 11.8 53.2 47 0.8 33.5
22:10 1021 30.15 850 25.1 11.7 53.1 47 0.9 33.6
22:15 1021 30.15 850 25.1 11.8 53.2 47 1 33.8
22:20 1021 30.15 850 25.1 11.6 52.9 48 1 33.8
22:25 1021 30.15 850 25.1 11.5 52.7 49 1.1 34
22:30 1021 30.15 850 25.1 11.4 52.5 49 1.1 33.9
22:35 1021 30.15 850 25.1 11.4 52.5 49 1.1 33.9
22:40 1021 30.15 850 25.1 11.4 52.4 49 1 33.9
22:45 1021 30.15 850 25.1 11.3 52.4 49 1.1 34
22:50 1021 30.15 850 25.1 11.1 52 50 1.2 34.2
22:55 1021 30.15 850 25.1 11.1 52 50 1.2 34.1
23:00 1021 30.15 850 25.1 11 51.8 51 1.2 34.2
23:05 1021 30.15 850 25.1 10.9 51.6 51 1.2 34.1
23:10 1021 30.15 850 25.1 10.8 51.5 51 1.2 34.1
23:15 1021 30.15 850 25.1 10.8 51.5 51 1.2 34.1
23:20 1021 30.15 850 25.1 10.8 51.4 51 1.2 34.2
23:25 1021 30.15 850 25.1 10.7 51.3 52 1.2 34.2
23:30 1021 30.15 850 25.1 10.7 51.3 51 1.1 34
23:35 1021 30.15 850 25.1 10.7 51.2 52 1.2 34.1
23:40 1021 30.15 850 25.1 10.5 50.9 52 1.2 34.1
23:45 1021 30.15 850 25.1 10.4 50.7 52 1.1 34
23:50 1020 30.12 850 25.1 10.4 50.7 53 1.1 34.1
23:55 1021 30.15 850 25.1 10.4 50.7 52 1.2 34.1
24:00 1021 30.15 850 25.1 10.3 50.5 53 1.3 34.3